Time;durP1;ratioP1;P1;durP2;ratioP2;P2;SDS_P1;SDS_P2;PMS_P1;PMS_P2;Temp;Humidity;BMP_temperature;BMP_pressure;BME280_temperature;BME280_humidity;BME280_pressure;Samples;Min_cycle;Max_cycle;Signal;HPM_P1;HPM_P2
2021/11/13 00:01:03;;;;;;;25.25;17.50;;;9.10;99.90;;;;;;5031164;28;20108;-76
2021/11/13 00:03:30;;;;;;;20.00;14.45;;;9.10;99.90;;;;;;5032691;28;20039;-76
2021/11/13 00:05:56;;;;;;;20.52;15.35;;;9.10;99.90;;;;;;5037572;28;20488;-77
2021/11/13 00:08:23;;;;;;;20.30;15.38;;;9.10;99.90;;;;;;5035310;28;20043;-77
2021/11/13 00:10:53;;;;;;;26.90;18.98;;;9.10;99.90;;;;;;5018699;28;20597;-76
2021/11/13 00:13:21;;;;;;;22.83;16.27;;;9.10;99.90;;;;;;5033395;28;20044;-77
2021/11/13 00:15:48;;;;;;;23.95;16.35;;;9.10;99.90;;;;;;5033022;28;20048;-76
2021/11/13 00:18:15;;;;;;;19.23;15.05;;;9.10;99.90;;;;;;5017558;28;20033;-79
2021/11/13 00:20:42;;;;;;;18.25;14.00;;;9.20;99.90;;;;;;5033694;28;20045;-77
2021/11/13 00:23:09;;;;;;;22.63;17.00;;;9.20;99.90;;;;;;5033693;28;20060;-77
2021/11/13 00:25:36;;;;;;;20.80;14.45;;;9.20;99.90;;;;;;5030428;28;20029;-77
2021/11/13 00:28:02;;;;;;;19.25;15.05;;;9.20;99.90;;;;;;5035503;28;20050;-77
2021/11/13 00:30:29;;;;;;;25.15;16.52;;;9.20;99.90;;;;;;5036069;28;20041;-77
2021/11/13 00:32:56;;;;;;;24.63;17.23;;;9.20;99.90;;;;;;5030394;28;20040;-77
2021/11/13 00:35:22;;;;;;;22.92;17.30;;;9.20;99.90;;;;;;5033853;28;20061;-77
2021/11/13 00:37:49;;;;;;;30.42;20.08;;;9.20;99.90;;;;;;5034255;28;20488;-77
2021/11/13 00:40:17;;;;;;;30.02;19.70;;;9.20;99.90;;;;;;5033843;28;20040;-77
2021/11/13 00:42:44;;;;;;;24.15;16.35;;;9.20;99.90;;;;;;5017512;28;20041;-77
2021/11/13 00:45:11;;;;;;;25.25;18.35;;;9.30;99.90;;;;;;5031731;28;20777;-77
2021/11/13 00:47:38;;;;;;;22.02;15.52;;;9.20;99.90;;;;;;5015811;28;20038;-77
2021/11/13 00:50:06;;;;;;;24.60;17.40;;;9.20;99.90;;;;;;5032908;28;20476;-76
2021/11/13 00:52:37;;;;;;;23.70;16.58;;;9.20;99.90;;;;;;5035165;28;20076;-76
2021/11/13 00:55:05;;;;;;;23.45;15.70;;;9.20;99.90;;;;;;5034090;28;20041;-76
2021/11/13 00:57:31;;;;;;;25.60;18.65;;;9.20;99.90;;;;;;5030517;28;20064;-76
2021/11/13 00:59:58;;;;;;;29.30;20.17;;;9.20;99.90;;;;;;5032987;28;20510;-76
2021/11/13 01:02:24;;;;;;;32.90;21.45;;;9.20;99.90;;;;;;5032113;28;20033;-76
2021/11/13 01:04:50;;;;;;;35.25;21.95;;;9.20;99.90;;;;;;5031335;28;20059;-75
2021/11/13 01:07:17;;;;;;;29.70;20.63;;;9.20;99.90;;;;;;5029532;28;20033;-77
2021/11/13 01:09:43;;;;;;;29.70;21.63;;;9.20;99.90;;;;;;5029555;28;20061;-77
2021/11/13 01:12:10;;;;;;;26.17;18.83;;;9.20;99.90;;;;;;5030317;28;20052;-77
2021/11/13 01:14:40;;;;;;;25.38;17.52;;;9.20;99.90;;;;;;5028741;28;20041;-77
2021/11/13 01:17:14;;;;;;;27.48;18.00;;;9.20;99.90;;;;;;5028591;28;20037;-77
2021/11/13 01:19:43;;;;;;;29.05;18.58;;;9.20;99.90;;;;;;5028121;28;20037;-77
2021/11/13 01:22:10;;;;;;;18.75;14.13;;;9.20;99.90;;;;;;5030094;28;20068;-78
2021/11/13 01:24:37;;;;;;;21.45;15.02;;;9.20;99.90;;;;;;5012433;28;20483;-75
2021/11/13 01:27:04;;;;;;;36.33;24.92;;;9.20;99.90;;;;;;5028517;28;20048;-76
2021/11/13 01:29:30;;;;;;;29.77;20.35;;;9.20;99.90;;;;;;5027532;28;20033;-75
2021/11/13 01:31:57;;;;;;;25.75;17.88;;;9.20;99.90;;;;;;5027889;28;20041;-76
2021/11/13 01:34:24;;;;;;;30.70;18.90;;;9.20;99.90;;;;;;5030503;28;20040;-76
2021/11/13 01:36:50;;;;;;;25.35;18.08;;;9.20;99.90;;;;;;5019196;28;20033;-76
2021/11/13 01:39:18;;;;;;;40.13;22.73;;;9.30;99.90;;;;;;5030199;28;20044;-76
2021/11/13 01:41:45;;;;;;;43.20;25.52;;;9.20;99.90;;;;;;5001932;28;20053;-75
2021/11/13 01:44:11;;;;;;;33.50;21.42;;;9.30;99.90;;;;;;5032794;28;20048;-76
2021/11/13 01:46:40;;;;;;;28.45;18.92;;;9.20;99.90;;;;;;5037039;28;20048;-76
2021/11/13 01:49:07;;;;;;;23.92;17.60;;;9.20;99.90;;;;;;5033484;28;20384;-77
2021/11/13 01:51:34;;;;;;;26.92;17.15;;;9.20;99.90;;;;;;5035401;28;20042;-77
2021/11/13 01:54:06;;;;;;;23.05;16.77;;;9.20;99.90;;;;;;5028732;28;20045;-77
2021/11/13 01:56:34;;;;;;;26.20;18.77;;;9.20;99.90;;;;;;5029049;28;20056;-77
2021/11/13 01:59:03;;;;;;;32.08;19.77;;;9.30;99.90;;;;;;5037309;28;20037;-78
2021/11/13 02:01:30;;;;;;;29.65;18.70;;;9.30;99.90;;;;;;5039063;28;20480;-78
2021/11/13 02:03:57;;;;;;;30.88;19.70;;;9.30;99.90;;;;;;5035243;28;20033;-78
2021/11/13 02:06:25;;;;;;;39.20;23.35;;;9.30;99.90;;;;;;5031166;28;20045;-78
2021/11/13 02:08:53;;;;;;;26.00;17.73;;;9.30;99.90;;;;;;5029466;28;20026;-78
2021/11/13 02:11:22;;;;;;;23.63;17.45;;;9.30;99.90;;;;;;5032849;28;20045;-78
2021/11/13 02:13:49;;;;;;;22.92;15.93;;;9.30;99.90;;;;;;5037448;28;20049;-76
2021/11/13 02:16:15;;;;;;;22.27;15.05;;;9.30;99.90;;;;;;5032248;28;20041;-76
2021/11/13 02:18:43;;;;;;;21.10;14.93;;;9.30;99.90;;;;;;5033150;28;20040;-76
2021/11/13 02:21:10;;;;;;;17.00;13.65;;;9.40;99.90;;;;;;5034476;28;20049;-76
2021/11/13 02:23:39;;;;;;;21.95;16.40;;;9.40;99.90;;;;;;5038221;28;20559;-77
2021/11/13 02:26:06;;;;;;;27.50;17.48;;;9.30;99.90;;;;;;5018306;28;20124;-77
2021/11/13 02:28:36;;;;;;;27.65;17.83;;;9.40;99.90;;;;;;5036494;28;20052;-77
2021/11/13 02:31:06;;;;;;;21.13;15.30;;;9.40;99.90;;;;;;5037926;28;20041;-76
2021/11/13 02:33:34;;;;;;;24.75;15.85;;;9.40;99.90;;;;;;5037709;28;20037;-74
2021/11/13 02:36:01;;;;;;;21.98;16.05;;;9.40;99.90;;;;;;5032744;28;20036;-75
2021/11/13 02:38:35;;;;;;;24.58;16.20;;;9.40;99.90;;;;;;5036214;28;20037;-77
2021/11/13 02:41:08;;;;;;;26.05;18.05;;;9.40;99.90;;;;;;5032679;28;20040;-77
2021/11/13 02:43:36;;;;;;;22.50;15.98;;;9.40;99.90;;;;;;5015952;28;20037;-77
2021/11/13 02:46:07;;;;;;;22.48;17.17;;;9.40;99.90;;;;;;5033824;28;20033;-76
2021/11/13 02:48:36;;;;;;;19.98;15.18;;;9.50;99.90;;;;;;5033669;28;20088;-76
2021/11/13 02:51:02;;;;;;;22.27;15.35;;;9.50;99.90;;;;;;5034435;28;20345;-76
2021/11/13 02:53:29;;;;;;;22.45;16.67;;;9.50;99.90;;;;;;5036451;28;20385;-77
2021/11/13 02:55:59;;;;;;;22.35;15.80;;;9.50;99.90;;;;;;5032001;28;20049;-76
2021/11/13 02:58:26;;;;;;;23.00;15.90;;;9.50;99.90;;;;;;5031541;28;20427;-76
2021/11/13 03:01:09;;;;;;;18.65;13.60;;;9.50;99.90;;;;;;5034997;28;20520;-74
2021/11/13 03:03:38;;;;;;;24.77;17.63;;;9.50;99.90;;;;;;5031477;28;20887;-75
2021/11/13 03:06:12;;;;;;;21.55;14.98;;;9.60;99.90;;;;;;5015059;28;20048;-75
2021/11/13 03:08:40;;;;;;;23.67;16.58;;;9.60;99.90;;;;;;5031494;28;20380;-76
2021/11/13 03:11:11;;;;;;;18.60;13.88;;;9.60;99.90;;;;;;5031744;28;20033;-76
2021/11/13 03:13:40;;;;;;;17.63;13.60;;;9.60;99.90;;;;;;5032895;28;20036;-77
2021/11/13 03:16:07;;;;;;;21.85;17.08;;;9.60;99.90;;;;;;5016478;28;20045;-77
2021/11/13 03:18:34;;;;;;;24.98;15.40;;;9.70;99.90;;;;;;5039159;28;20059;-76
2021/11/13 03:21:05;;;;;;;22.15;16.90;;;9.70;99.90;;;;;;5036751;28;20041;-77
2021/11/13 03:23:34;;;;;;;21.90;16.20;;;9.60;99.90;;;;;;5038402;28;20041;-76
2021/11/13 03:26:22;;;;;;;19.67;15.32;;;9.70;99.90;;;;;;5032315;28;20061;-77
2021/11/13 03:29:01;;;;;;;21.05;15.38;;;9.70;99.90;;;;;;5035686;28;20045;-76
2021/11/13 03:31:29;;;;;;;23.33;16.83;;;9.70;99.90;;;;;;5036953;28;20377;-77
2021/11/13 03:33:56;;;;;;;28.60;19.00;;;9.70;99.90;;;;;;5026489;28;20045;-76
2021/11/13 03:36:23;;;;;;;22.48;17.10;;;9.70;99.90;;;;;;5042376;28;20091;-75
2021/11/13 03:38:52;;;;;;;21.67;15.15;;;9.70;99.90;;;;;;5037503;28;20132;-75
2021/11/13 03:41:19;;;;;;;20.35;15.57;;;9.80;99.90;;;;;;5038429;28;20033;-75
2021/11/13 03:43:47;;;;;;;27.25;19.15;;;9.80;99.90;;;;;;5033685;28;20037;-76
2021/11/13 03:46:13;;;;;;;25.25;19.50;;;9.80;99.90;;;;;;5015412;28;20045;-76
2021/11/13 03:48:41;;;;;;;25.88;18.00;;;9.80;99.90;;;;;;5034705;28;20041;-76
2021/11/13 03:51:07;;;;;;;25.35;18.52;;;9.80;99.90;;;;;;5035525;28;20584;-78
2021/11/13 03:53:35;;;;;;;26.02;19.30;;;9.80;99.90;;;;;;5038848;28;20037;-77
2021/11/13 03:56:01;;;;;;;31.75;23.10;;;9.80;99.90;;;;;;5035468;28;20033;-77
2021/11/13 03:58:28;;;;;;;29.92;21.35;;;9.80;99.90;;;;;;5035060;28;20056;-78
2021/11/13 04:00:58;;;;;;;24.30;18.08;;;9.80;99.90;;;;;;5036792;28;20030;-78
2021/11/13 04:03:25;;;;;;;21.63;17.42;;;9.90;99.90;;;;;;5021549;28;20396;-78
2021/11/13 04:05:51;;;;;;;26.45;19.15;;;9.90;99.90;;;;;;5032758;28;20097;-78
2021/11/13 04:08:18;;;;;;;25.17;17.25;;;9.90;99.90;;;;;;5031434;28;20041;-78
2021/11/13 04:10:47;;;;;;;23.98;18.25;;;9.90;99.90;;;;;;5016323;28;20033;-77
2021/11/13 04:13:14;;;;;;;25.60;18.48;;;9.90;99.90;;;;;;5032410;28;20038;-76
2021/11/13 04:15:41;;;;;;;21.60;15.25;;;9.90;99.90;;;;;;5035077;28;20036;-77
2021/11/13 04:18:07;;;;;;;25.50;17.77;;;10.00;99.90;;;;;;5033244;28;20048;-77
2021/11/13 04:20:34;;;;;;;22.60;16.58;;;10.00;99.90;;;;;;5034110;28;20037;-77
2021/11/13 04:23:01;;;;;;;24.27;17.13;;;10.00;99.90;;;;;;5033991;28;20404;-77
2021/11/13 04:25:28;;;;;;;24.77;18.27;;;10.00;99.90;;;;;;5030155;28;20534;-76
2021/11/13 04:27:59;;;;;;;23.38;17.33;;;10.00;99.90;;;;;;5037023;28;20040;-77
2021/11/13 04:30:25;;;;;;;25.80;19.25;;;10.00;99.90;;;;;;5033893;28;20037;-76
2021/11/13 04:32:52;;;;;;;29.33;20.42;;;10.00;99.90;;;;;;5031449;28;20488;-78
2021/11/13 04:37:59;;;;;;;26.08;18.75;;;10.00;99.90;;;;;;5028777;28;20029;-78
2021/11/13 04:40:28;;;;;;;20.88;16.17;;;10.00;99.90;;;;;;5046182;28;20033;-78
2021/11/13 04:42:55;;;;;;;18.95;13.60;;;10.10;99.90;;;;;;5028246;28;20025;-77
2021/11/13 04:45:23;;;;;;;18.95;15.02;;;10.10;99.90;;;;;;5025560;28;20045;-78
2021/11/13 04:47:50;;;;;;;19.38;14.85;;;10.10;99.90;;;;;;5029799;28;20036;-78
2021/11/13 04:50:19;;;;;;;22.90;16.50;;;10.10;99.90;;;;;;5031662;28;20033;-77
2021/11/13 04:52:47;;;;;;;22.65;17.55;;;10.10;99.90;;;;;;5030933;28;20051;-75
2021/11/13 04:55:13;;;;;;;23.75;17.90;;;10.10;99.90;;;;;;5026935;28;20041;-75
2021/11/13 04:57:41;;;;;;;25.27;18.55;;;10.20;99.90;;;;;;5029796;28;20370;-75
2021/11/13 05:00:14;;;;;;;26.35;18.70;;;10.20;99.90;;;;;;5029732;28;20037;-75
2021/11/13 05:02:40;;;;;;;24.83;18.67;;;10.20;99.90;;;;;;5029767;28;20045;-76
2021/11/13 05:05:08;;;;;;;23.65;17.58;;;10.20;99.90;;;;;;5027748;28;20052;-75
2021/11/13 05:07:34;;;;;;;19.52;15.75;;;10.20;99.90;;;;;;5031105;28;20036;-75
2021/11/13 05:10:01;;;;;;;20.98;15.70;;;10.10;99.90;;;;;;5031841;28;20041;-77
2021/11/13 05:12:28;;;;;;;19.25;16.05;;;10.20;99.90;;;;;;5035588;28;20033;-77
2021/11/13 05:14:57;;;;;;;24.13;17.13;;;10.20;99.90;;;;;;5033182;28;20033;-77
2021/11/13 05:17:24;;;;;;;23.90;16.88;;;10.20;99.90;;;;;;5019266;28;20399;-78
2021/11/13 05:19:50;;;;;;;22.35;16.27;;;10.20;99.90;;;;;;5038260;28;20041;-77
2021/11/13 05:22:16;;;;;;;21.08;15.32;;;10.20;99.90;;;;;;5036839;28;20045;-77
2021/11/13 05:24:43;;;;;;;17.02;14.68;;;10.20;99.90;;;;;;5031821;28;20504;-77
2021/11/13 05:27:10;;;;;;;19.45;14.23;;;10.20;99.90;;;;;;5033111;28;20048;-76
2021/11/13 05:29:39;;;;;;;18.83;13.82;;;10.20;99.90;;;;;;5032409;28;20472;-76
2021/11/13 05:32:06;;;;;;;17.55;14.40;;;10.20;99.90;;;;;;5029741;28;20392;-75
2021/11/13 05:34:33;;;;;;;17.58;14.00;;;10.20;99.90;;;;;;5026087;28;20038;-75
2021/11/13 05:36:59;;;;;;;16.02;13.10;;;10.20;99.90;;;;;;5030162;28;20063;-77
2021/11/13 05:39:28;;;;;;;18.27;13.20;;;10.20;99.90;;;;;;5027683;28;20041;-75
2021/11/13 05:41:56;;;;;;;16.67;13.82;;;10.20;99.90;;;;;;5031963;28;20044;-75
2021/11/13 05:44:23;;;;;;;15.07;11.40;;;10.20;99.90;;;;;;5025491;28;20489;-76
2021/11/13 05:46:54;;;;;;;17.98;14.32;;;10.20;99.90;;;;;;5029347;28;20289;-76
2021/11/13 05:49:21;;;;;;;17.08;14.05;;;10.20;99.90;;;;;;5026164;28;20504;-76
2021/11/13 05:51:50;;;;;;;17.13;13.70;;;10.20;99.90;;;;;;5026707;28;20034;-76
2021/11/13 05:54:18;;;;;;;14.52;12.38;;;10.20;99.90;;;;;;5030446;28;20481;-76
2021/11/13 05:56:45;;;;;;;13.60;11.40;;;10.20;99.90;;;;;;5034562;28;20361;-75
2021/11/13 05:59:13;;;;;;;13.13;11.20;;;10.20;99.90;;;;;;5036403;28;20451;-75
2021/11/13 06:01:41;;;;;;;15.95;12.18;;;10.20;99.90;;;;;;5017790;28;20025;-74
2021/11/13 06:04:08;;;;;;;18.98;13.88;;;10.20;99.90;;;;;;5032585;28;20041;-75
2021/11/13 06:06:35;;;;;;;21.75;15.75;;;10.20;99.90;;;;;;5031761;28;20033;-75
2021/11/13 06:09:02;;;;;;;17.67;13.63;;;10.20;99.90;;;;;;5036047;28;20045;-78
2021/11/13 06:11:28;;;;;;;13.13;10.50;;;10.20;99.90;;;;;;5034353;28;20516;-78
2021/11/13 06:13:55;;;;;;;12.57;9.23;;;10.20;99.90;;;;;;5014699;28;20033;-78
2021/11/13 06:16:21;;;;;;;12.80;9.00;;;10.20;99.90;;;;;;5032454;28;20044;-76
2021/11/13 06:18:47;;;;;;;10.05;8.75;;;10.20;99.90;;;;;;5029079;28;20103;-76
2021/11/13 06:21:14;;;;;;;9.32;7.15;;;10.20;99.90;;;;;;5033780;28;20053;-76
2021/11/13 06:23:45;;;;;;;7.22;6.47;;;10.20;99.90;;;;;;5014786;28;20030;-76
2021/11/13 06:26:17;;;;;;;9.30;8.23;;;10.20;99.90;;;;;;5029341;28;20040;-76
2021/11/13 06:28:45;;;;;;;10.02;7.05;;;10.20;99.90;;;;;;5029328;28;20417;-79
2021/11/13 06:31:12;;;;;;;11.05;9.20;;;10.30;99.90;;;;;;5032077;28;20040;-77
2021/11/13 06:33:39;;;;;;;10.02;8.68;;;10.30;99.90;;;;;;5034131;28;20041;-76
2021/11/13 06:36:05;;;;;;;10.90;9.15;;;10.30;99.90;;;;;;5032909;28;20040;-78
2021/11/13 06:38:32;;;;;;;10.82;9.13;;;10.30;99.90;;;;;;5029787;28;20215;-77
2021/11/13 06:40:59;;;;;;;16.05;11.93;;;10.30;99.90;;;;;;5031716;28;20452;-78
2021/11/13 06:43:25;;;;;;;17.20;13.18;;;10.30;99.90;;;;;;5031283;28;20033;-78
2021/11/13 06:45:52;;;;;;;14.40;11.85;;;10.30;99.90;;;;;;5018489;28;20032;-78
2021/11/13 06:48:20;;;;;;;14.35;11.88;;;10.30;99.90;;;;;;5006851;28;20137;-77
2021/11/13 06:50:48;;;;;;;13.77;11.65;;;10.30;99.90;;;;;;5025854;28;20387;-77
2021/11/13 06:53:14;;;;;;;13.38;11.43;;;10.30;99.90;;;;;;5017261;28;20045;-77
2021/11/13 06:55:41;;;;;;;14.65;10.98;;;10.30;99.90;;;;;;5034557;28;20030;-77
2021/11/13 06:58:07;;;;;;;14.95;11.90;;;10.30;99.90;;;;;;5029825;28;20026;-77
2021/11/13 07:00:34;;;;;;;12.57;10.23;;;10.30;99.90;;;;;;5029203;28;20373;-76
2021/11/13 07:03:02;;;;;;;13.50;11.32;;;10.30;99.90;;;;;;5028755;28;20152;-77
2021/11/13 07:05:29;;;;;;;12.70;10.80;;;10.30;99.90;;;;;;5028186;28;20484;-76
2021/11/13 07:07:57;;;;;;;12.95;10.80;;;10.40;99.90;;;;;;5020670;28;20052;-75
2021/11/13 07:10:25;;;;;;;13.27;11.05;;;10.40;99.90;;;;;;5033868;28;20041;-74
2021/11/13 07:12:51;;;;;;;14.90;10.85;;;10.40;99.90;;;;;;5041318;28;20042;-75
2021/11/13 07:15:19;;;;;;;11.35;10.10;;;10.40;99.90;;;;;;5032121;28;20481;-75
2021/11/13 07:17:46;;;;;;;19.15;14.25;;;10.30;99.90;;;;;;5033885;28;20546;-76
2021/11/13 07:20:14;;;;;;;18.38;14.10;;;10.40;99.90;;;;;;5024993;28;20144;-75
2021/11/13 07:22:41;;;;;;;19.50;14.07;;;10.40;99.90;;;;;;5028084;28;20052;-74
2021/11/13 07:25:13;;;;;;;16.27;12.98;;;10.30;99.90;;;;;;5029452;28;20036;-77
2021/11/13 07:27:42;;;;;;;17.35;11.60;;;10.40;99.90;;;;;;5005627;28;20028;-77
2021/11/13 07:30:12;;;;;;;12.77;11.43;;;10.40;99.90;;;;;;5028222;28;20048;-77
2021/11/13 07:32:38;;;;;;;14.63;12.80;;;10.40;99.90;;;;;;5025852;28;20516;-76
2021/11/13 07:35:05;;;;;;;14.85;13.18;;;10.40;99.90;;;;;;5028705;28;20385;-77
2021/11/13 07:37:31;;;;;;;13.65;12.15;;;10.40;99.90;;;;;;5031498;28;20044;-76
2021/11/13 07:39:58;;;;;;;17.35;12.63;;;10.40;99.90;;;;;;5033006;28;20049;-77
2021/11/13 07:42:24;;;;;;;16.20;13.40;;;10.50;99.90;;;;;;5033913;28;20488;-78
2021/11/13 07:44:53;;;;;;;17.23;14.32;;;10.50;99.90;;;;;;5018050;28;20034;-75
2021/11/13 07:47:20;;;;;;;14.38;11.77;;;10.50;99.90;;;;;;5033710;28;20029;-74
2021/11/13 07:49:46;;;;;;;12.63;10.95;;;10.50;99.90;;;;;;5035531;28;20130;-76
2021/11/13 07:52:13;;;;;;;16.75;12.48;;;10.60;99.90;;;;;;5030593;28;20041;-76
2021/11/13 07:54:39;;;;;;;16.85;12.45;;;10.60;99.90;;;;;;5032924;28;20532;-76
2021/11/13 07:57:08;;;;;;;13.32;11.27;;;10.70;99.90;;;;;;5030973;28;20060;-76
2021/11/13 07:59:35;;;;;;;17.05;13.75;;;10.70;99.90;;;;;;5031621;28;20059;-77
2021/11/13 08:02:02;;;;;;;14.27;12.25;;;10.80;99.90;;;;;;5030893;28;20026;-76
2021/11/13 08:04:28;;;;;;;12.82;9.60;;;10.80;99.90;;;;;;5026963;28;20038;-77
2021/11/13 08:06:55;;;;;;;15.95;12.38;;;10.80;99.90;;;;;;5027214;28;20033;-77
2021/11/13 08:09:21;;;;;;;14.02;11.65;;;10.80;99.90;;;;;;5032567;28;20034;-76
2021/11/13 08:11:48;;;;;;;13.07;11.57;;;10.80;99.90;;;;;;5030714;28;20480;-76
2021/11/13 08:14:14;;;;;;;15.57;13.05;;;10.90;99.90;;;;;;5030055;28;20751;-77
2021/11/13 08:16:41;;;;;;;13.55;11.48;;;10.90;99.90;;;;;;5030922;28;20053;-77
2021/11/13 08:19:10;;;;;;;17.08;14.18;;;10.90;99.90;;;;;;5031229;28;20037;-76
2021/11/13 08:21:36;;;;;;;15.70;12.95;;;11.00;99.90;;;;;;5031020;28;20401;-74
2021/11/13 08:24:03;;;;;;;16.27;13.88;;;11.00;99.90;;;;;;5013569;28;20041;-74
2021/11/13 08:26:29;;;;;;;16.27;13.35;;;11.00;99.90;;;;;;5025760;28;20148;-75
2021/11/13 08:28:56;;;;;;;17.00;13.75;;;11.00;99.90;;;;;;5029116;28;20034;-75
2021/11/13 08:31:23;;;;;;;15.93;13.35;;;11.10;99.90;;;;;;5032211;28;20512;-73
2021/11/13 08:33:49;;;;;;;19.92;15.35;;;11.10;99.90;;;;;;5035180;28;20029;-73
2021/11/13 08:36:16;;;;;;;17.63;14.43;;;11.10;99.90;;;;;;5036108;28;20045;-74
2021/11/13 08:38:43;;;;;;;21.45;16.10;;;11.10;99.90;;;;;;5029829;28;20147;-73
2021/11/13 08:41:09;;;;;;;19.10;13.73;;;11.10;99.90;;;;;;5029344;28;20032;-73
2021/11/13 08:43:36;;;;;;;17.92;13.98;;;11.10;99.90;;;;;;5016889;28;20040;-74
2021/11/13 08:46:03;;;;;;;16.77;14.90;;;11.10;99.90;;;;;;5031071;28;20029;-74
2021/11/13 08:48:30;;;;;;;18.92;15.00;;;11.20;99.90;;;;;;5033585;28;20528;-74
2021/11/13 08:50:56;;;;;;;19.27;14.63;;;11.20;99.90;;;;;;5035104;28;20040;-74
2021/11/13 08:53:24;;;;;;;24.77;17.08;;;11.20;99.90;;;;;;5031522;28;20492;-74
2021/11/13 08:55:51;;;;;;;21.23;16.38;;;11.20;99.90;;;;;;5038671;28;20048;-75
2021/11/13 08:58:17;;;;;;;20.10;15.35;;;11.20;99.90;;;;;;5030676;28;20033;-75
2021/11/13 09:00:50;;;;;;;20.67;15.90;;;11.20;99.90;;;;;;5030672;28;20044;-75
2021/11/13 09:03:27;;;;;;;21.52;16.35;;;11.20;99.90;;;;;;5034194;28;20025;-75
2021/11/13 09:05:55;;;;;;;16.95;14.20;;;11.30;99.90;;;;;;5030956;28;20044;-75
2021/11/13 09:08:22;;;;;;;22.52;17.88;;;11.30;99.90;;;;;;5033435;28;20040;-75
2021/11/13 09:10:50;;;;;;;23.13;18.70;;;11.30;99.90;;;;;;5029781;28;20044;-75
2021/11/13 09:13:20;;;;;;;22.45;18.40;;;11.30;99.90;;;;;;5035396;28;20043;-75
2021/11/13 09:15:47;;;;;;;25.63;18.38;;;11.40;99.90;;;;;;5030664;28;20037;-75
2021/11/13 09:18:14;;;;;;;21.58;17.67;;;11.40;99.90;;;;;;5028088;28;20029;-75
2021/11/13 09:20:41;;;;;;;26.67;18.73;;;11.50;99.90;;;;;;5031002;28;20033;-76
2021/11/13 09:23:09;;;;;;;24.35;18.77;;;11.50;99.90;;;;;;5028640;28;20425;-75
2021/11/13 09:25:37;;;;;;;22.88;16.77;;;11.60;99.90;;;;;;5028928;28;20392;-76
2021/11/13 09:28:04;;;;;;;23.48;17.77;;;11.60;99.90;;;;;;5033850;28;20038;-75
2021/11/13 09:30:32;;;;;;;20.52;17.10;;;11.60;99.90;;;;;;5029876;28;20060;-75
2021/11/13 09:32:59;;;;;;;23.15;18.27;;;11.70;99.90;;;;;;5034511;28;20468;-74
2021/11/13 09:35:26;;;;;;;24.55;18.83;;;11.70;99.90;;;;;;5028901;28;20049;-75
2021/11/13 09:37:54;;;;;;;22.92;17.50;;;11.80;99.90;;;;;;5030644;28;20372;-74
2021/11/13 09:40:24;;;;;;;25.25;16.77;;;11.80;99.90;;;;;;5032902;28;20049;-74
2021/11/13 09:42:54;;;;;;;20.17;16.25;;;11.90;99.90;;;;;;5030185;28;20041;-74
2021/11/13 09:45:21;;;;;;;22.63;17.08;;;11.90;99.90;;;;;;5030253;28;20037;-74
2021/11/13 09:47:50;;;;;;;22.08;17.65;;;11.90;99.90;;;;;;5029702;28;20045;-74
2021/11/13 09:50:19;;;;;;;22.60;17.30;;;11.90;99.90;;;;;;5032353;28;20040;-75
2021/11/13 09:52:46;;;;;;;23.70;16.85;;;12.00;99.90;;;;;;5016202;28;20055;-74
2021/11/13 09:55:14;;;;;;;22.83;16.20;;;12.00;99.90;;;;;;5030035;28;20044;-75
2021/11/13 09:57:41;;;;;;;23.00;17.10;;;12.00;99.90;;;;;;5028264;28;20029;-74
2021/11/13 10:00:16;;;;;;;22.92;16.23;;;12.10;99.90;;;;;;5029922;28;20029;-74
2021/11/13 10:02:43;;;;;;;23.23;17.30;;;12.20;99.90;;;;;;5028438;28;20484;-75
2021/11/13 10:05:11;;;;;;;26.98;19.63;;;12.20;99.90;;;;;;5028747;28;20485;-75
2021/11/13 10:07:38;;;;;;;24.13;17.27;;;12.20;99.90;;;;;;5029376;28;20064;-75
2021/11/13 10:10:07;;;;;;;25.38;18.55;;;12.20;99.90;;;;;;5028285;28;20628;-74
2021/11/13 10:12:36;;;;;;;22.35;17.88;;;12.20;99.90;;;;;;5030305;28;20029;-74
2021/11/13 10:15:35;;;;;;;21.55;16.75;;;12.20;99.90;;;;;;5033317;28;20036;-75
2021/11/13 10:18:09;;;;;;;19.70;15.70;;;12.20;99.90;;;;;;5029922;28;20030;-74
2021/11/13 10:20:45;;;;;;;19.63;14.95;;;12.30;99.90;;;;;;5030443;28;20041;-75
2021/11/13 10:23:20;;;;;;;19.73;15.30;;;12.30;99.90;;;;;;5030686;28;20050;-75
2021/11/13 10:25:57;;;;;;;24.98;15.68;;;12.30;99.90;;;;;;5032000;28;20041;-75
2021/11/13 10:28:24;;;;;;;19.10;15.38;;;12.30;99.90;;;;;;5026817;28;20037;-75
2021/11/13 10:31:15;;;;;;;23.77;16.48;;;12.40;99.90;;;;;;5014066;28;20048;-75
2021/11/13 10:33:42;;;;;;;22.40;16.77;;;12.40;99.90;;;;;;5032008;28;20036;-75
2021/11/13 10:36:09;;;;;;;23.27;17.25;;;12.50;99.90;;;;;;5031275;28;20052;-76
2021/11/13 10:38:37;;;;;;;26.23;18.17;;;12.50;99.90;;;;;;5027997;28;20045;-75
2021/11/13 10:41:11;;;;;;;20.65;15.80;;;12.60;99.90;;;;;;5034182;28;20042;-75
2021/11/13 10:43:43;;;;;;;16.20;13.75;;;12.70;99.90;;;;;;5033579;28;20033;-75
2021/11/13 10:46:12;;;;;;;22.48;15.15;;;12.70;99.90;;;;;;5036973;28;20036;-75
2021/11/13 10:48:51;;;;;;;18.65;15.00;;;12.80;99.90;;;;;;5034298;28;20423;-76
2021/11/13 10:51:24;;;;;;;22.30;15.55;;;12.80;99.90;;;;;;5037278;28;20052;-76
2021/11/13 10:53:50;;;;;;;20.30;15.63;;;12.90;99.90;;;;;;5036948;28;20029;-75
2021/11/13 10:56:25;;;;;;;19.52;15.00;;;12.80;99.90;;;;;;5039726;28;20044;-76
2021/11/13 10:58:54;;;;;;;19.60;14.55;;;12.80;99.90;;;;;;5036432;28;20033;-75
2021/11/13 11:01:24;;;;;;;19.33;16.60;;;12.80;99.90;;;;;;5036355;28;20492;-77
2021/11/13 11:03:53;;;;;;;22.27;15.63;;;12.80;99.90;;;;;;5035485;28;20384;-76
2021/11/13 11:06:25;;;;;;;22.23;17.08;;;12.90;99.90;;;;;;5038453;28;20592;-76
2021/11/13 11:08:52;;;;;;;22.80;16.75;;;12.90;99.90;;;;;;5034662;28;20030;-76
2021/11/13 11:11:36;;;;;;;21.10;16.30;;;13.00;99.90;;;;;;5037828;28;20046;-76
2021/11/13 11:14:05;;;;;;;24.08;16.27;;;13.10;99.90;;;;;;5036997;28;20512;-76
2021/11/13 11:16:38;;;;;;;24.75;17.80;;;13.20;99.90;;;;;;5035726;28;20044;-75
2021/11/13 11:19:15;;;;;;;22.05;16.27;;;13.20;99.90;;;;;;5020035;28;20488;-76
2021/11/13 11:21:47;;;;;;;21.88;17.55;;;13.20;99.90;;;;;;5039362;28;20037;-76
2021/11/13 11:24:22;;;;;;;21.13;17.00;;;13.20;99.90;;;;;;5036544;28;20044;-76
2021/11/13 11:27:04;;;;;;;23.05;16.50;;;13.30;99.90;;;;;;5033648;28;20057;-76
2021/11/13 11:29:34;;;;;;;19.30;14.63;;;13.20;99.90;;;;;;5032978;28;20033;-76
2021/11/13 11:32:06;;;;;;;16.58;14.38;;;13.20;99.90;;;;;;5034061;28;20029;-74
2021/11/13 11:34:39;;;;;;;17.17;14.32;;;13.20;99.90;;;;;;5036106;28;20041;-75
2021/11/13 11:37:14;;;;;;;22.75;15.88;;;13.20;99.90;;;;;;5033118;28;20041;-75
2021/11/13 11:39:43;;;;;;;18.25;14.60;;;13.10;99.90;;;;;;5017077;28;20039;-75
2021/11/13 11:42:11;;;;;;;17.92;14.10;;;13.10;99.90;;;;;;5035368;28;20025;-75
2021/11/13 11:44:39;;;;;;;15.85;12.38;;;13.10;99.90;;;;;;5035360;28;20038;-75
2021/11/13 11:47:11;;;;;;;15.93;13.38;;;13.00;99.90;;;;;;5031448;28;20029;-75
2021/11/13 11:49:44;;;;;;;16.70;13.35;;;13.00;99.90;;;;;;5036972;28;20040;-75
2021/11/13 11:52:13;;;;;;;15.85;12.70;;;13.00;99.90;;;;;;5036607;28;20025;-76
2021/11/13 11:54:40;;;;;;;16.98;12.27;;;13.00;99.90;;;;;;5033294;28;20045;-76
2021/11/13 11:57:07;;;;;;;14.10;11.40;;;13.00;99.90;;;;;;5018075;28;20048;-76
2021/11/13 11:59:36;;;;;;;12.13;10.68;;;13.00;99.90;;;;;;5034920;28;20037;-75
2021/11/13 12:02:09;;;;;;;13.05;11.48;;;13.00;99.90;;;;;;5035805;28;20392;-75
2021/11/13 12:04:36;;;;;;;12.50;11.00;;;13.10;99.90;;;;;;5036444;28;20400;-76
2021/11/13 12:07:03;;;;;;;13.52;11.23;;;13.10;99.90;;;;;;5033183;28;20392;-76
2021/11/13 12:09:29;;;;;;;13.05;11.63;;;13.20;99.90;;;;;;4999375;28;20049;-76
2021/11/13 12:12:19;;;;;;;13.00;10.70;;;13.20;99.90;;;;;;5034295;28;20477;-76
2021/11/13 12:14:46;;;;;;;14.63;12.18;;;13.30;99.90;;;;;;5035068;28;20388;-76
2021/11/13 12:17:34;;;;;;;13.90;10.13;;;13.40;99.90;;;;;;5032083;28;20045;-76
2021/11/13 12:20:05;;;;;;;11.85;10.45;;;13.40;99.90;;;;;;5032023;28;20048;-77
2021/11/13 12:22:42;;;;;;;13.90;10.48;;;13.50;99.90;;;;;;5033991;28;20049;-74
2021/11/13 12:25:13;;;;;;;10.98;9.50;;;13.50;99.90;;;;;;5033386;28;20037;-74
2021/11/13 12:27:40;;;;;;;10.27;9.18;;;13.50;99.90;;;;;;5033238;28;20025;-75
2021/11/13 12:30:08;;;;;;;12.35;9.40;;;13.50;99.90;;;;;;5033682;28;20025;-73
2021/11/13 12:32:39;;;;;;;9.95;8.95;;;13.50;99.90;;;;;;5034848;28;20099;-76
2021/11/13 12:35:06;;;;;;;10.38;8.85;;;13.70;99.90;;;;;;5037864;28;20396;-75
2021/11/13 12:37:33;;;;;;;14.00;11.43;;;13.80;99.90;;;;;;5034548;28;20044;-75
2021/11/13 12:39:59;;;;;;;14.05;11.48;;;13.80;99.90;;;;;;5003226;28;20064;-75